Estación Meteorológica Peña el Pijo (Robertgarden) [ 12/11/19 23:03:18 CET ]

Fecha Hora Presion(HPa) Temp (°C) Humedad % Rocio (°C) Viento ( m/s) Direccion Lluvia 1Hora(mm) Lluvia 24H(mm) LLuvia Total(mm)
2019-Aug-06 01:01:48 1010.700 18.4 73 13.5         363.34
2019-Aug-06 02:01:47 1010.500 19.0 65 12.2         363.34
2019-Aug-06 03:01:41 1010.300 17.9 67 11.7         363.34
2019-Aug-06 04:01:43 1010.200 18.3 62 10.9         363.34
2019-Aug-06 05:07:04 1010.200 17.3 64 10.4         363.34
2019-Aug-06 06:01:44 1010.200 16.4 65 9.8         363.34
2019-Aug-06 07:02:14 1010.200 13.9 72 8.9         363.34
2019-Aug-06 08:01:40 1010.200 13.6 77 9.6         363.34
2019-Aug-06 09:01:47 1010.100 21.2 65 14.3         363.34
2019-Aug-06 10:01:52 1010.300 27.9 46 15.1         363.34
2019-Aug-06 11:01:53 1010.200 31.3 33 13.0         363.34
2019-Aug-06 12:01:47 1010.400 33.3 26 11.0         363.34
2019-Aug-06 13:01:55 1010.200 34.1 21 8.6         363.34
2019-Aug-06 14:01:47 1009.400 37.3 19 9.6 0.7 WSW     363.34
2019-Aug-06 15:01:43 1009.100 38.9 18 9.9         363.34
2019-Aug-06 16:01:53 1008.300 39.3 17 9.2         363.34
2019-Aug-06 17:01:57 1007.700 37.9 18 9.1 1.2 NNE     363.34
2019-Aug-06 18:01:51 1007.500 37.2 17 7.6         363.34
2019-Aug-06 19:01:47 1007.700 35.6 18 7.2         363.34
2019-Aug-06 20:02:02 1008.100 33.3 20 7.3         363.34
2019-Aug-06 21:01:50 1008.300 28.9 29 9.0         363.34
2019-Aug-06 22:01:48 1008.700 23.6 41 9.6         363.34
2019-Aug-06 23:01:57 1009.300 20.8 50 10.0         363.34

Temperatura Máxima:39°    Temperatura Mínima:13°
Presión Máxima:1010.700 Hpa    Presión Mínima:1007.500 Hpa


Volver